ARG1417 SAME-SABE
Flight info
| Callsign | ARG1417 |
|---|---|
| Flight time | 1h 19m |
| Altitude | 35000 |
| Route | KAMUV1C KAMUV UT670 SNT SNT9R |
| Aircraft | B738/M-MSDFGHILRVWS/LB1 |
Departure
| Time | 2026-05-07 22:58 |
|---|---|
| Airport | Governor Francisco Gabrielli International Airport (SAME) |
Arrival
| Time | 2026-05-08 00:18 |
|---|---|
| Airport | Aeroparque Jorge Newbery (SABE) |
| Time | Latitude | Longitude | Altitude | Speed | Heading |
|---|---|---|---|---|---|
| 2026-05-07 22:33 | -32.82767 | -68.79775 | 2319 ft | 0 kts | 270° |
| 2026-05-07 22:40 | -32.82767 | -68.79773 | 2319 ft | 0 kts | 270° |
| 2026-05-07 22:48 | -32.82767 | -68.79771 | 2319 ft | 1 kts | 270° |
| 2026-05-07 22:48 | -32.82767 | -68.79751 | 2319 ft | 3 kts | 264° |
| 2026-05-07 22:48 | -32.82763 | -68.79728 | 2319 ft | 3 kts | 247° |
| 2026-05-07 22:48 | -32.82753 | -68.79709 | 2319 ft | 3 kts | 214° |
| 2026-05-07 22:49 | -32.82742 | -68.79703 | 2319 ft | 1 kts | 181° |
| 2026-05-07 22:49 | -32.82741 | -68.79703 | 2319 ft | 0 kts | 180° |
| 2026-05-07 22:51 | -32.82745 | -68.79703 | 2319 ft | 2 kts | 180° |
| 2026-05-07 22:52 | -32.82796 | -68.79704 | 2319 ft | 11 kts | 180° |
| 2026-05-07 22:52 | -32.82863 | -68.79704 | 2319 ft | 9 kts | 179° |
| 2026-05-07 22:52 | -32.82901 | -68.79651 | 2319 ft | 9 kts | 122° |
| 2026-05-07 22:52 | -32.82945 | -68.79603 | 2319 ft | 9 kts | 139° |
| 2026-05-07 22:53 | -32.82990 | -68.79558 | 2319 ft | 8 kts | 140° |
| 2026-05-07 22:53 | -32.83033 | -68.79517 | 2319 ft | 8 kts | 150° |
| 2026-05-07 22:53 | -32.83091 | -68.79508 | 2319 ft | 14 kts | 180° |
| 2026-05-07 22:53 | -32.83216 | -68.79509 | 2319 ft | 18 kts | 180° |
| 2026-05-07 22:54 | -32.83338 | -68.79511 | 2319 ft | 17 kts | 180° |
| 2026-05-07 22:54 | -32.83454 | -68.79512 | 2319 ft | 16 kts | 180° |
| 2026-05-07 22:54 | -32.83565 | -68.79514 | 2319 ft | 15 kts | 180° |
| 2026-05-07 22:54 | -32.83668 | -68.79515 | 2319 ft | 14 kts | 180° |
| 2026-05-07 22:55 | -32.83764 | -68.79517 | 2319 ft | 13 kts | 180° |
| 2026-05-07 22:55 | -32.83855 | -68.79517 | 2319 ft | 13 kts | 180° |
| 2026-05-07 22:55 | -32.83942 | -68.79518 | 2319 ft | 12 kts | 181° |
| 2026-05-07 22:55 | -32.84024 | -68.79513 | 2319 ft | 12 kts | 152° |
| 2026-05-07 22:56 | -32.84098 | -68.79474 | 2319 ft | 11 kts | 161° |
| 2026-05-07 22:56 | -32.84173 | -68.79446 | 2319 ft | 11 kts | 163° |
| 2026-05-07 22:56 | -32.84242 | -68.79415 | 2319 ft | 10 kts | 148° |
| 2026-05-07 22:56 | -32.84301 | -68.79370 | 2319 ft | 10 kts | 147° |
| 2026-05-07 22:57 | -32.84333 | -68.79318 | 2319 ft | 6 kts | 87° |
| 2026-05-07 22:57 | -32.84306 | -68.79302 | 2319 ft | 0 kts | 359° |
| 2026-05-07 22:57 | -32.84255 | -68.79302 | 2319 ft | 23 kts | 0° |
| 2026-05-07 22:58 | -32.83873 | -68.79295 | 2319 ft | 88 kts | 1° |
| 2026-05-07 22:58 | -32.83034 | -68.79283 | 2320 ft | 149 kts | 0° |
| 2026-05-07 22:58 | -32.81900 | -68.79273 | 2629 ft | 172 kts | 0° |
| 2026-05-07 22:58 | -32.80688 | -68.79263 | 3434 ft | 171 kts | 1° |
| 2026-05-07 22:59 | -32.79475 | -68.79242 | 4100 ft | 182 kts | 359° |
| 2026-05-07 22:59 | -32.78077 | -68.79213 | 4289 ft | 221 kts | 358° |
| 2026-05-07 22:59 | -32.76485 | -68.78872 | 4482 ft | 256 kts | 22° |
| 2026-05-07 22:59 | -32.75082 | -68.77413 | 4871 ft | 279 kts | 62° |
| 2026-05-07 23:00 | -32.74532 | -68.75233 | 5954 ft | 268 kts | 84° |
| 2026-05-07 23:00 | -32.74254 | -68.72980 | 6648 ft | 290 kts | 85° |
| 2026-05-07 23:00 | -32.74016 | -68.70577 | 7591 ft | 290 kts | 88° |
| 2026-05-07 23:00 | -32.73736 | -68.68217 | 8613 ft | 292 kts | 85° |
| 2026-05-07 23:01 | -32.73377 | -68.65798 | 9454 ft | 299 kts | 85° |
| 2026-05-07 23:01 | -32.73130 | -68.63342 | 10261 ft | 301 kts | 95° |
| 2026-05-07 23:01 | -32.73266 | -68.60874 | 11093 ft | 299 kts | 107° |
| 2026-05-07 23:01 | -32.73695 | -68.58422 | 11721 ft | 309 kts | 112° |
| 2026-05-07 23:02 | -32.74242 | -68.55882 | 12139 ft | 329 kts | 113° |
| 2026-05-07 23:02 | -32.74815 | -68.53152 | 12573 ft | 347 kts | 112° |
| 2026-05-07 23:02 | -32.75389 | -68.50330 | 13286 ft | 354 kts | 113° |
| 2026-05-07 23:02 | -32.75959 | -68.47474 | 14159 ft | 356 kts | 114° |
| 2026-05-07 23:03 | -32.76529 | -68.44591 | 14980 ft | 360 kts | 114° |
| 2026-05-07 23:03 | -32.77101 | -68.41686 | 15821 ft | 361 kts | 115° |
| 2026-05-07 23:03 | -32.77674 | -68.38771 | 16604 ft | 364 kts | 116° |
| 2026-05-07 23:03 | -32.78255 | -68.35819 | 17372 ft | 367 kts | 116° |
| 2026-05-07 23:04 | -32.78835 | -68.32869 | 18136 ft | 369 kts | 117° |
| 2026-05-07 23:04 | -32.79421 | -68.29886 | 18875 ft | 371 kts | 117° |
| 2026-05-07 23:04 | -32.80009 | -68.26889 | 19578 ft | 374 kts | 117° |
| 2026-05-07 23:04 | -32.80601 | -68.23863 | 20271 ft | 377 kts | 117° |
| 2026-05-07 23:05 | -32.81186 | -68.20864 | 20935 ft | 379 kts | 117° |
| 2026-05-07 23:05 | -32.81783 | -68.17797 | 21569 ft | 382 kts | 117° |
| 2026-05-07 23:05 | -32.82384 | -68.14705 | 22200 ft | 384 kts | 117° |
| 2026-05-07 23:05 | -32.82985 | -68.11616 | 22806 ft | 387 kts | 117° |
| 2026-05-07 23:06 | -32.83590 | -68.08497 | 23391 ft | 389 kts | 117° |
| 2026-05-07 23:06 | -32.84227 | -68.05342 | 23945 ft | 391 kts | 118° |
| 2026-05-07 23:06 | -32.84864 | -68.02176 | 24374 ft | 397 kts | 117° |
| 2026-05-07 23:06 | -32.85499 | -67.98948 | 24812 ft | 403 kts | 117° |
| 2026-05-07 23:07 | -32.86131 | -67.95694 | 25223 ft | 408 kts | 116° |
| 2026-05-07 23:07 | -32.86773 | -67.92368 | 25639 ft | 414 kts | 116° |
| 2026-05-07 23:07 | -32.87415 | -67.89026 | 26041 ft | 418 kts | 116° |
| 2026-05-07 23:07 | -32.88066 | -67.85628 | 26438 ft | 423 kts | 115° |
| 2026-05-07 23:08 | -32.88724 | -67.82197 | 26827 ft | 428 kts | 115° |
| 2026-05-07 23:08 | -32.89388 | -67.78727 | 27204 ft | 432 kts | 115° |
| 2026-05-07 23:08 | -32.90059 | -67.75222 | 27574 ft | 436 kts | 115° |
| 2026-05-07 23:08 | -32.90729 | -67.71724 | 27923 ft | 440 kts | 114° |
| 2026-05-07 23:09 | -32.91415 | -67.68148 | 28275 ft | 444 kts | 114° |
| 2026-05-07 23:09 | -32.92129 | -67.64501 | 28627 ft | 448 kts | 114° |
| 2026-05-07 23:09 | -32.92824 | -67.60934 | 28957 ft | 452 kts | 114° |
| 2026-05-07 23:09 | -32.93535 | -67.57273 | 29273 ft | 456 kts | 113° |
| 2026-05-07 23:10 | -32.94248 | -67.53587 | 29602 ft | 459 kts | 113° |
| 2026-05-07 23:10 | -32.94964 | -67.49877 | 29921 ft | 463 kts | 113° |
| 2026-05-07 23:10 | -32.95689 | -67.46115 | 30242 ft | 466 kts | 113° |
| 2026-05-07 23:10 | -32.96415 | -67.42341 | 30540 ft | 469 kts | 112° |
| 2026-05-07 23:11 | -32.97145 | -67.38545 | 30860 ft | 471 kts | 112° |
| 2026-05-07 23:11 | -32.97877 | -67.34729 | 31238 ft | 472 kts | 112° |
| 2026-05-07 23:11 | -32.98605 | -67.30932 | 31583 ft | 473 kts | 112° |
| 2026-05-07 23:11 | -32.99361 | -67.27108 | 31937 ft | 474 kts | 112° |
| 2026-05-07 23:12 | -33.00113 | -67.23270 | 32293 ft | 475 kts | 111° |
| 2026-05-07 23:12 | -33.00860 | -67.19425 | 32639 ft | 476 kts | 111° |
| 2026-05-07 23:12 | -33.01623 | -67.15584 | 32983 ft | 477 kts | 111° |
| 2026-05-07 23:12 | -33.02366 | -67.11730 | 33326 ft | 478 kts | 110° |
| 2026-05-07 23:13 | -33.03101 | -67.07872 | 33668 ft | 478 kts | 110° |
| 2026-05-07 23:13 | -33.03824 | -67.04052 | 34003 ft | 479 kts | 110° |
| 2026-05-07 23:13 | -33.04560 | -67.00154 | 34202 ft | 483 kts | 109° |
| 2026-05-07 23:13 | -33.05300 | -66.96224 | 34323 ft | 489 kts | 109° |
| 2026-05-07 23:14 | -33.06044 | -66.92271 | 34654 ft | 488 kts | 108° |
| 2026-05-07 23:14 | -33.06787 | -66.88318 | 34878 ft | 491 kts | 108° |
| 2026-05-07 23:14 | -33.07537 | -66.84337 | 34932 ft | 495 kts | 108° |
| 2026-05-07 23:15 | -33.09053 | -66.76268 | 35099 ft | 503 kts | 108° |
| 2026-05-07 23:15 | -33.10588 | -66.68062 | 35180 ft | 511 kts | 108° |
| 2026-05-07 23:16 | -33.12136 | -66.59740 | 35211 ft | 515 kts | 108° |
| 2026-05-07 23:16 | -33.13704 | -66.51413 | 35233 ft | 513 kts | 109° |
| 2026-05-07 23:17 | -33.15284 | -66.43108 | 35245 ft | 514 kts | 108° |
| 2026-05-07 23:17 | -33.16820 | -66.34775 | 35246 ft | 514 kts | 108° |
| 2026-05-07 23:18 | -33.18346 | -66.26438 | 35249 ft | 513 kts | 108° |
| 2026-05-07 23:18 | -33.19861 | -66.18163 | 35247 ft | 513 kts | 108° |
| 2026-05-07 23:19 | -33.21385 | -66.09825 | 35245 ft | 513 kts | 108° |
| 2026-05-07 23:19 | -33.22651 | -66.02873 | 35216 ft | 518 kts | 104° |
| 2026-05-07 23:20 | -33.24184 | -65.94388 | 35187 ft | 525 kts | 105° |
| 2026-05-07 23:20 | -33.25725 | -65.85831 | 35170 ft | 521 kts | 105° |
| 2026-05-07 23:21 | -33.27237 | -65.77391 | 35108 ft | 519 kts | 104° |
| 2026-05-07 23:21 | -33.28783 | -65.69008 | 35083 ft | 520 kts | 104° |
| 2026-05-07 23:22 | -33.30317 | -65.60572 | 35114 ft | 518 kts | 104° |
| 2026-05-07 23:22 | -33.31824 | -65.52182 | 35179 ft | 515 kts | 104° |
| 2026-05-07 23:23 | -33.33320 | -65.43793 | 35204 ft | 517 kts | 104° |
| 2026-05-07 23:23 | -33.34814 | -65.35380 | 35211 ft | 515 kts | 104° |
| 2026-05-07 23:24 | -33.36290 | -65.27028 | 35210 ft | 512 kts | 104° |
| 2026-05-07 23:24 | -33.37757 | -65.18688 | 35197 ft | 513 kts | 104° |
| 2026-05-07 23:25 | -33.39219 | -65.10351 | 35183 ft | 510 kts | 104° |
| 2026-05-07 23:25 | -33.40664 | -65.02068 | 35174 ft | 507 kts | 105° |
| 2026-05-07 23:26 | -33.42099 | -64.93813 | 35159 ft | 506 kts | 104° |
| 2026-05-07 23:26 | -33.43504 | -64.85645 | 34972 ft | 505 kts | 105° |
| 2026-05-07 23:27 | -33.45756 | -64.73336 | 35025 ft | 499 kts | 106° |
| 2026-05-07 23:27 | -33.47067 | -64.65058 | 34999 ft | 507 kts | 104° |
| 2026-05-07 23:28 | -33.48456 | -64.56830 | 34929 ft | 507 kts | 104° |
| 2026-05-07 23:28 | -33.49811 | -64.48567 | 34893 ft | 506 kts | 104° |
| 2026-05-07 23:29 | -33.51139 | -64.40233 | 34859 ft | 505 kts | 104° |
| 2026-05-07 23:29 | -33.52440 | -64.32030 | 34821 ft | 505 kts | 104° |
| 2026-05-07 23:30 | -33.53751 | -64.23722 | 34788 ft | 506 kts | 104° |
| 2026-05-07 23:30 | -33.55060 | -64.15403 | 34772 ft | 508 kts | 103° |
| 2026-05-07 23:31 | -33.56409 | -64.07096 | 34760 ft | 508 kts | 104° |
| 2026-05-07 23:31 | -33.57740 | -63.98773 | 34752 ft | 508 kts | 103° |
| 2026-05-07 23:32 | -33.59049 | -63.90466 | 34780 ft | 508 kts | 103° |
| 2026-05-07 23:32 | -33.60355 | -63.82119 | 34780 ft | 508 kts | 103° |
| 2026-05-07 23:33 | -33.61642 | -63.73849 | 34776 ft | 508 kts | 103° |
| 2026-05-07 23:33 | -33.62928 | -63.65544 | 34783 ft | 508 kts | 103° |
| 2026-05-07 23:34 | -33.64215 | -63.57192 | 34775 ft | 511 kts | 102° |
| 2026-05-07 23:34 | -33.65507 | -63.48768 | 34769 ft | 510 kts | 102° |
| 2026-05-07 23:35 | -33.66783 | -63.40409 | 34760 ft | 510 kts | 102° |
| 2026-05-07 23:35 | -33.68089 | -63.32021 | 34770 ft | 510 kts | 102° |
| 2026-05-07 23:36 | -33.69349 | -63.23647 | 34803 ft | 509 kts | 102° |
| 2026-05-07 23:36 | -33.70590 | -63.15319 | 34836 ft | 509 kts | 102° |
| 2026-05-07 23:37 | -33.71842 | -63.06901 | 34846 ft | 509 kts | 102° |
| 2026-05-07 23:37 | -33.73090 | -62.98594 | 34845 ft | 508 kts | 103° |
| 2026-05-07 23:38 | -33.74394 | -62.90293 | 35156 ft | 497 kts | 102° |
| 2026-05-07 23:38 | -33.75007 | -62.86283 | 36075 ft | 483 kts | 102° |
| 2026-05-07 23:38 | -33.75611 | -62.82295 | 36053 ft | 490 kts | 102° |
| 2026-05-07 23:39 | -33.76229 | -62.78209 | 35807 ft | 501 kts | 99° |
| 2026-05-07 23:39 | -33.76853 | -62.74070 | 35559 ft | 508 kts | 99° |
| 2026-05-07 23:39 | -33.77492 | -62.69827 | 35308 ft | 512 kts | 99° |
| 2026-05-07 23:39 | -33.78118 | -62.65683 | 35061 ft | 510 kts | 101° |
| 2026-05-07 23:40 | -33.78748 | -62.61483 | 34904 ft | 509 kts | 101° |
| 2026-05-07 23:40 | -33.79375 | -62.57300 | 34867 ft | 509 kts | 99° |
| 2026-05-07 23:40 | -33.80634 | -62.48840 | 34850 ft | 515 kts | 99° |
| 2026-05-07 23:41 | -33.81885 | -62.40376 | 34845 ft | 514 kts | 100° |
| 2026-05-07 23:41 | -33.83133 | -62.31893 | 34834 ft | 516 kts | 99° |
| 2026-05-07 23:42 | -33.84382 | -62.23378 | 34825 ft | 518 kts | 99° |
| 2026-05-07 23:42 | -33.85675 | -62.14851 | 34832 ft | 515 kts | 100° |
| 2026-05-07 23:43 | -33.86944 | -62.06367 | 34820 ft | 518 kts | 100° |
| 2026-05-07 23:43 | -33.88210 | -61.97789 | 34804 ft | 521 kts | 101° |
| 2026-05-07 23:44 | -33.89435 | -61.89268 | 34809 ft | 517 kts | 100° |
| 2026-05-07 23:44 | -33.90659 | -61.80703 | 34784 ft | 522 kts | 99° |
| 2026-05-07 23:45 | -33.91902 | -61.71998 | 34778 ft | 524 kts | 100° |
| 2026-05-07 23:45 | -33.93143 | -61.63454 | 34766 ft | 523 kts | 101° |
| 2026-05-07 23:46 | -33.94380 | -61.54756 | 34719 ft | 531 kts | 100° |
| 2026-05-07 23:46 | -33.95617 | -61.45978 | 34709 ft | 530 kts | 100° |
| 2026-05-07 23:47 | -33.96847 | -61.37211 | 34693 ft | 532 kts | 101° |
| 2026-05-07 23:47 | -33.98061 | -61.28410 | 34676 ft | 534 kts | 100° |
| 2026-05-07 23:48 | -33.99263 | -61.19609 | 34683 ft | 532 kts | 100° |
| 2026-05-07 23:48 | -34.00460 | -61.10783 | 34666 ft | 535 kts | 100° |
| 2026-05-07 23:49 | -34.01654 | -61.01927 | 34664 ft | 534 kts | 100° |
| 2026-05-07 23:49 | -34.02870 | -60.93175 | 34671 ft | 522 kts | 98° |
| 2026-05-07 23:50 | -34.04052 | -60.84627 | 34653 ft | 512 kts | 99° |
| 2026-05-07 23:50 | -34.05201 | -60.76158 | 34295 ft | 507 kts | 100° |
| 2026-05-07 23:51 | -34.05761 | -60.71996 | 33877 ft | 501 kts | 100° |
| 2026-05-07 23:51 | -34.06317 | -60.67855 | 33353 ft | 499 kts | 97° |
| 2026-05-07 23:51 | -34.06866 | -60.63736 | 32850 ft | 497 kts | 98° |
| 2026-05-07 23:51 | -34.07404 | -60.59698 | 32365 ft | 495 kts | 99° |
| 2026-05-07 23:52 | -34.07944 | -60.55628 | 31888 ft | 493 kts | 101° |
| 2026-05-07 23:52 | -34.08486 | -60.51537 | 31416 ft | 491 kts | 101° |
| 2026-05-07 23:52 | -34.09021 | -60.47483 | 30949 ft | 489 kts | 101° |
| 2026-05-07 23:52 | -34.09554 | -60.43453 | 30480 ft | 487 kts | 94° |
| 2026-05-07 23:53 | -34.10082 | -60.39428 | 30015 ft | 485 kts | 94° |
| 2026-05-07 23:53 | -34.10607 | -60.35423 | 29557 ft | 481 kts | 90° |
| 2026-05-07 23:53 | -34.11128 | -60.31428 | 29109 ft | 478 kts | 92° |
| 2026-05-07 23:53 | -34.11644 | -60.27466 | 28651 ft | 475 kts | 92° |
| 2026-05-07 23:54 | -34.12153 | -60.23552 | 28193 ft | 473 kts | 92° |
| 2026-05-07 23:54 | -34.12661 | -60.19632 | 27713 ft | 471 kts | 91° |
| 2026-05-07 23:54 | -34.13163 | -60.15752 | 27252 ft | 468 kts | 91° |
| 2026-05-07 23:54 | -34.13662 | -60.11883 | 26796 ft | 465 kts | 91° |
| 2026-05-07 23:55 | -34.14157 | -60.08032 | 26338 ft | 462 kts | 93° |
| 2026-05-07 23:55 | -34.14648 | -60.04208 | 25886 ft | 460 kts | 92° |
| 2026-05-07 23:55 | -34.15136 | -60.00396 | 25436 ft | 457 kts | 92° |
| 2026-05-07 23:55 | -34.15617 | -59.96626 | 25006 ft | 453 kts | 94° |
| 2026-05-07 23:56 | -34.16092 | -59.92899 | 24573 ft | 449 kts | 94° |
| 2026-05-07 23:56 | -34.16567 | -59.89160 | 24127 ft | 445 kts | 94° |
| 2026-05-07 23:56 | -34.17034 | -59.85474 | 23682 ft | 442 kts | 94° |
| 2026-05-07 23:56 | -34.17494 | -59.81873 | 23243 ft | 439 kts | 94° |
| 2026-05-07 23:57 | -34.17975 | -59.78237 | 22797 ft | 436 kts | 94° |
| 2026-05-07 23:57 | -34.18432 | -59.74650 | 22353 ft | 432 kts | 94° |
| 2026-05-07 23:57 | -34.18882 | -59.71055 | 21908 ft | 429 kts | 94° |
| 2026-05-07 23:57 | -34.19322 | -59.67513 | 21469 ft | 426 kts | 94° |
| 2026-05-07 23:58 | -34.19759 | -59.63974 | 21032 ft | 423 kts | 94° |
| 2026-05-07 23:58 | -34.20192 | -59.60459 | 20597 ft | 421 kts | 94° |
| 2026-05-07 23:58 | -34.20618 | -59.56988 | 20169 ft | 418 kts | 94° |
| 2026-05-07 23:58 | -34.21044 | -59.53522 | 19744 ft | 415 kts | 94° |
| 2026-05-07 23:59 | -34.21466 | -59.50082 | 19322 ft | 412 kts | 94° |
| 2026-05-07 23:59 | -34.21943 | -59.46686 | 18908 ft | 411 kts | 99° |
| 2026-05-07 23:59 | -34.22783 | -59.43376 | 18495 ft | 411 kts | 109° |
| 2026-05-07 23:59 | -34.24042 | -59.40286 | 18083 ft | 409 kts | 120° |
| 2026-05-08 00:00 | -34.25551 | -59.37397 | 17678 ft | 407 kts | 123° |
| 2026-05-08 00:00 | -34.27114 | -59.34569 | 17274 ft | 404 kts | 124° |
| 2026-05-08 00:00 | -34.28655 | -59.31727 | 16868 ft | 402 kts | 123° |
| 2026-05-08 00:00 | -34.30144 | -59.28944 | 16473 ft | 399 kts | 124° |
| 2026-05-08 00:01 | -34.31651 | -59.26102 | 16068 ft | 397 kts | 124° |
| 2026-05-08 00:01 | -34.33120 | -59.23318 | 15674 ft | 394 kts | 124° |
| 2026-05-08 00:01 | -34.34599 | -59.20504 | 15276 ft | 391 kts | 124° |
| 2026-05-08 00:01 | -34.36048 | -59.17753 | 14884 ft | 388 kts | 118° |
| 2026-05-08 00:02 | -34.37477 | -59.15020 | 14498 ft | 384 kts | 118° |
| 2026-05-08 00:02 | -34.38914 | -59.12273 | 14111 ft | 380 kts | 119° |
| 2026-05-08 00:02 | -34.40331 | -59.09634 | 13739 ft | 376 kts | 120° |
| 2026-05-08 00:02 | -34.41739 | -59.06987 | 13367 ft | 372 kts | 120° |
| 2026-05-08 00:03 | -34.42662 | -59.05237 | 13121 ft | 369 kts | 120° |
| 2026-05-08 00:03 | -34.44449 | -59.01768 | 12856 ft | 356 kts | 116° |
| 2026-05-08 00:03 | -34.45448 | -58.99094 | 12776 ft | 342 kts | 109° |
| 2026-05-08 00:03 | -34.46354 | -58.96478 | 12700 ft | 331 kts | 109° |
| 2026-05-08 00:04 | -34.47227 | -58.93946 | 12635 ft | 320 kts | 109° |
| 2026-05-08 00:04 | -34.48069 | -58.91500 | 12570 ft | 309 kts | 109° |
| 2026-05-08 00:04 | -34.48881 | -58.89134 | 12499 ft | 299 kts | 109° |
| 2026-05-08 00:04 | -34.49673 | -58.86825 | 12309 ft | 295 kts | 109° |
| 2026-05-08 00:05 | -34.50459 | -58.84533 | 12026 ft | 294 kts | 109° |
| 2026-05-08 00:05 | -34.50978 | -58.83017 | 11830 ft | 294 kts | 109° |
| 2026-05-08 00:05 | -34.51523 | -58.81424 | 11685 ft | 291 kts | 109° |
| 2026-05-08 00:05 | -34.52310 | -58.79122 | 11441 ft | 289 kts | 109° |
| 2026-05-08 00:06 | -34.53070 | -58.76898 | 11111 ft | 290 kts | 109° |
| 2026-05-08 00:06 | -34.53840 | -58.74643 | 10814 ft | 290 kts | 110° |
| 2026-05-08 00:06 | -34.54613 | -58.72379 | 10511 ft | 290 kts | 110° |
| 2026-05-08 00:06 | -34.55378 | -58.70135 | 10220 ft | 290 kts | 111° |
| 2026-05-08 00:07 | -34.56152 | -58.67865 | 9940 ft | 288 kts | 111° |
| 2026-05-08 00:07 | -34.56916 | -58.65624 | 9627 ft | 286 kts | 112° |
| 2026-05-08 00:07 | -34.57673 | -58.63403 | 9265 ft | 285 kts | 112° |
| 2026-05-08 00:07 | -34.58426 | -58.61202 | 8931 ft | 282 kts | 113° |
| 2026-05-08 00:08 | -34.59192 | -58.59047 | 8545 ft | 279 kts | 113° |
| 2026-05-08 00:08 | -34.59941 | -58.56918 | 8302 ft | 269 kts | 113° |
| 2026-05-08 00:08 | -34.60667 | -58.54824 | 7844 ft | 272 kts | 113° |
| 2026-05-08 00:08 | -34.61399 | -58.52692 | 7343 ft | 273 kts | 113° |
| 2026-05-08 00:09 | -34.62125 | -58.50564 | 6844 ft | 273 kts | 113° |
| 2026-05-08 00:09 | -34.62845 | -58.48447 | 6510 ft | 266 kts | 114° |
| 2026-05-08 00:09 | -34.63532 | -58.46420 | 6257 ft | 256 kts | 113° |
| 2026-05-08 00:09 | -34.64210 | -58.44416 | 5947 ft | 249 kts | 114° |
| 2026-05-08 00:10 | -34.64849 | -58.42526 | 5830 ft | 234 kts | 114° |
| 2026-05-08 00:10 | -34.65466 | -58.40699 | 5422 ft | 235 kts | 114° |
| 2026-05-08 00:10 | -34.66088 | -58.38855 | 4810 ft | 244 kts | 114° |
| 2026-05-08 00:10 | -34.66736 | -58.36934 | 4442 ft | 240 kts | 114° |
| 2026-05-08 00:11 | -34.67348 | -58.35116 | 4318 ft | 224 kts | 114° |
| 2026-05-08 00:11 | -34.67924 | -58.33408 | 4161 ft | 210 kts | 114° |
| 2026-05-08 00:11 | -34.68474 | -58.31776 | 3861 ft | 208 kts | 115° |
| 2026-05-08 00:11 | -34.69017 | -58.30166 | 3525 ft | 209 kts | 116° |
| 2026-05-08 00:12 | -34.69562 | -58.28547 | 3195 ft | 208 kts | 116° |
| 2026-05-08 00:12 | -34.70099 | -58.26909 | 3007 ft | 208 kts | 113° |
| 2026-05-08 00:12 | -34.70175 | -58.25148 | 2919 ft | 216 kts | 76° |
| 2026-05-08 00:12 | -34.69299 | -58.23721 | 2935 ft | 214 kts | 30° |
| 2026-05-08 00:13 | -34.67918 | -58.23264 | 2979 ft | 205 kts | 357° |
| 2026-05-08 00:13 | -34.66599 | -58.23597 | 2882 ft | 184 kts | 326° |
| 2026-05-08 00:13 | -34.65697 | -58.24552 | 2658 ft | 162 kts | 301° |
| 2026-05-08 00:13 | -34.65054 | -58.25655 | 2309 ft | 162 kts | 297° |
| 2026-05-08 00:14 | -34.64393 | -58.26755 | 2169 ft | 158 kts | 297° |
| 2026-05-08 00:14 | -34.63750 | -58.27831 | 2106 ft | 156 kts | 298° |
| 2026-05-08 00:14 | -34.63116 | -58.28895 | 2018 ft | 156 kts | 303° |
| 2026-05-08 00:14 | -34.62471 | -58.29975 | 1917 ft | 161 kts | 304° |
| 2026-05-08 00:15 | -34.61830 | -58.31044 | 1799 ft | 151 kts | 302° |
| 2026-05-08 00:15 | -34.61238 | -58.32071 | 1702 ft | 145 kts | 300° |
| 2026-05-08 00:15 | -34.60687 | -58.33046 | 1599 ft | 140 kts | 298° |
| 2026-05-08 00:15 | -34.60147 | -58.34011 | 1443 ft | 135 kts | 296° |
| 2026-05-08 00:16 | -34.59623 | -58.34948 | 1236 ft | 131 kts | 295° |
| 2026-05-08 00:16 | -34.59119 | -58.35851 | 1059 ft | 127 kts | 296° |
| 2026-05-08 00:16 | -34.58628 | -58.36730 | 882 ft | 125 kts | 298° |
| 2026-05-08 00:16 | -34.58142 | -58.37601 | 695 ft | 126 kts | 300° |
| 2026-05-08 00:17 | -34.57650 | -58.38503 | 438 ft | 129 kts | 303° |
| 2026-05-08 00:17 | -34.57117 | -58.39446 | 222 ft | 146 kts | 304° |
| 2026-05-08 00:17 | -34.56550 | -58.40455 | 118 ft | 144 kts | 304° |
| 2026-05-08 00:17 | -34.55998 | -58.41442 | 28 ft | 129 kts | 304° |
| 2026-05-08 00:18 | -34.55623 | -58.42110 | 26 ft | 59 kts | 303° |
| 2026-05-08 00:18 | -34.55451 | -58.42419 | 26 ft | 23 kts | 304° |
| 2026-05-08 00:18 | -34.55404 | -58.42497 | 26 ft | 9 kts | 323° |
| 2026-05-08 00:18 | -34.55352 | -58.42471 | 26 ft | 9 kts | 59° |
| 2026-05-08 00:19 | -34.55360 | -58.42397 | 26 ft | 9 kts | 102° |
| 2026-05-08 00:19 | -34.55389 | -58.42334 | 26 ft | 8 kts | 128° |
| 2026-05-08 00:19 | -34.55424 | -58.42278 | 26 ft | 8 kts | 128° |
| 2026-05-08 00:19 | -34.55458 | -58.42226 | 26 ft | 8 kts | 128° |
| 2026-05-08 00:20 | -34.55490 | -58.42175 | 26 ft | 7 kts | 127° |
| 2026-05-08 00:20 | -34.55519 | -58.42127 | 26 ft | 9 kts | 127° |
| 2026-05-08 00:20 | -34.55586 | -58.42017 | 26 ft | 21 kts | 123° |
| 2026-05-08 00:20 | -34.55652 | -58.41900 | 26 ft | 15 kts | 124° |
| 2026-05-08 00:21 | -34.55707 | -58.41802 | 26 ft | 14 kts | 124° |
| 2026-05-08 00:21 | -34.55753 | -58.41704 | 26 ft | 13 kts | 116° |
| 2026-05-08 00:21 | -34.55792 | -58.41608 | 26 ft | 12 kts | 116° |
| 2026-05-08 00:21 | -34.55830 | -58.41516 | 26 ft | 12 kts | 117° |
| 2026-05-08 00:22 | -34.55867 | -58.41428 | 26 ft | 11 kts | 117° |
| 2026-05-08 00:22 | -34.55901 | -58.41344 | 26 ft | 9 kts | 103° |
| 2026-05-08 00:22 | -34.55869 | -58.41288 | 26 ft | 7 kts | 32° |
| 2026-05-08 00:22 | -34.55828 | -58.41272 | 26 ft | 5 kts | 31° |
| 2026-05-08 00:23 | -34.55805 | -58.41254 | 26 ft | 2 kts | 34° |
| 2026-05-08 00:23 | -34.55800 | -58.41250 | 26 ft | 0 kts | 34° |